sensor_id;sensor_type;location;lat;lon;timestamp;P1;durP1;ratioP1;P2;durP2;ratioP2
37873;SDS011;23709;48.078;11.684;2024-02-21T00:00:39;11.88;;;4.80;;
37873;SDS011;23709;48.078;11.684;2024-02-21T00:03:13;9.27;;;4.15;;
37873;SDS011;23709;48.078;11.684;2024-02-21T00:05:46;8.00;;;3.45;;
37873;SDS011;23709;48.078;11.684;2024-02-21T00:08:19;9.73;;;3.88;;
37873;SDS011;23709;48.078;11.684;2024-02-21T00:10:51;7.00;;;3.17;;
37873;SDS011;23709;48.078;11.684;2024-02-21T00:13:23;11.20;;;3.55;;
37873;SDS011;23709;48.078;11.684;2024-02-21T00:15:56;5.45;;;2.83;;
37873;SDS011;23709;48.078;11.684;2024-02-21T00:18:29;9.00;;;3.17;;
37873;SDS011;23709;48.078;11.684;2024-02-21T00:21:01;6.07;;;2.92;;
37873;SDS011;23709;48.078;11.684;2024-02-21T00:23:34;8.13;;;2.80;;
37873;SDS011;23709;48.078;11.684;2024-02-21T00:26:07;10.45;;;3.03;;
37873;SDS011;23709;48.078;11.684;2024-02-21T00:28:39;7.65;;;2.80;;
37873;SDS011;23709;48.078;11.684;2024-02-21T00:31:12;6.28;;;2.90;;
37873;SDS011;23709;48.078;11.684;2024-02-21T00:33:44;9.40;;;3.10;;
37873;SDS011;23709;48.078;11.684;2024-02-21T00:36:16;9.25;;;2.42;;
37873;SDS011;23709;48.078;11.684;2024-02-21T00:38:49;10.10;;;2.83;;
37873;SDS011;23709;48.078;11.684;2024-02-21T00:41:21;4.72;;;2.50;;
37873;SDS011;23709;48.078;11.684;2024-02-21T00:43:53;8.43;;;3.03;;
37873;SDS011;23709;48.078;11.684;2024-02-21T00:46:26;5.78;;;3.10;;
37873;SDS011;23709;48.078;11.684;2024-02-21T00:48:58;3.85;;;2.22;;
37873;SDS011;23709;48.078;11.684;2024-02-21T00:51:31;7.80;;;2.92;;
37873;SDS011;23709;48.078;11.684;2024-02-21T00:54:03;5.95;;;2.88;;
37873;SDS011;23709;48.078;11.684;2024-02-21T00:56:36;7.78;;;2.95;;
37873;SDS011;23709;48.078;11.684;2024-02-21T00:59:08;7.47;;;2.45;;
37873;SDS011;23709;48.078;11.684;2024-02-21T01:01:40;5.82;;;2.88;;
37873;SDS011;23709;48.078;11.684;2024-02-21T01:04:15;6.55;;;2.50;;
37873;SDS011;23709;48.078;11.684;2024-02-21T01:06:48;6.43;;;3.27;;
37873;SDS011;23709;48.078;11.684;2024-02-21T01:09:20;7.95;;;3.03;;
37873;SDS011;23709;48.078;11.684;2024-02-21T01:11:53;11.98;;;3.90;;
37873;SDS011;23709;48.078;11.684;2024-02-21T01:14:25;10.55;;;3.10;;
37873;SDS011;23709;48.078;11.684;2024-02-21T01:16:58;9.05;;;3.25;;
37873;SDS011;23709;48.078;11.684;2024-02-21T01:19:30;5.70;;;2.95;;
37873;SDS011;23709;48.078;11.684;2024-02-21T01:22:02;8.73;;;2.92;;
37873;SDS011;23709;48.078;11.684;2024-02-21T01:24:35;4.73;;;2.73;;
37873;SDS011;23709;48.078;11.684;2024-02-21T01:27:07;11.50;;;3.83;;
37873;SDS011;23709;48.078;11.684;2024-02-21T01:29:39;10.60;;;3.60;;
37873;SDS011;23709;48.078;11.684;2024-02-21T01:32:12;8.50;;;2.50;;
37873;SDS011;23709;48.078;11.684;2024-02-21T01:34:44;11.18;;;3.42;;
37873;SDS011;23709;48.078;11.684;2024-02-21T01:37:16;7.50;;;3.45;;
37873;SDS011;23709;48.078;11.684;2024-02-21T01:39:49;11.55;;;4.03;;
37873;SDS011;23709;48.078;11.684;2024-02-21T01:42:22;10.98;;;3.28;;
37873;SDS011;23709;48.078;11.684;2024-02-21T01:44:55;5.78;;;2.53;;
37873;SDS011;23709;48.078;11.684;2024-02-21T01:47:27;10.32;;;3.78;;
37873;SDS011;23709;48.078;11.684;2024-02-21T01:49:59;9.68;;;3.70;;
37873;SDS011;23709;48.078;11.684;2024-02-21T01:52:34;9.10;;;2.67;;
37873;SDS011;23709;48.078;11.684;2024-02-21T01:55:08;7.82;;;2.90;;
37873;SDS011;23709;48.078;11.684;2024-02-21T01:57:45;4.88;;;2.50;;
37873;SDS011;23709;48.078;11.684;2024-02-21T02:02:51;8.85;;;2.65;;
37873;SDS011;23709;48.078;11.684;2024-02-21T02:05:24;3.67;;;2.27;;
37873;SDS011;23709;48.078;11.684;2024-02-21T02:07:56;8.32;;;3.30;;
37873;SDS011;23709;48.078;11.684;2024-02-21T02:10:29;5.47;;;2.35;;
37873;SDS011;23709;48.078;11.684;2024-02-21T02:13:02;10.68;;;2.63;;
37873;SDS011;23709;48.078;11.684;2024-02-21T02:15:52;6.43;;;3.08;;
37873;SDS011;23709;48.078;11.684;2024-02-21T02:18:25;7.70;;;2.95;;
37873;SDS011;23709;48.078;11.684;2024-02-21T02:20:58;9.35;;;3.20;;
37873;SDS011;23709;48.078;11.684;2024-02-21T02:23:31;9.55;;;2.78;;
37873;SDS011;23709;48.078;11.684;2024-02-21T02:26:05;7.50;;;2.58;;
37873;SDS011;23709;48.078;11.684;2024-02-21T02:28:39;7.95;;;2.65;;
37873;SDS011;23709;48.078;11.684;2024-02-21T02:31:12;17.05;;;3.78;;
37873;SDS011;23709;48.078;11.684;2024-02-21T02:33:44;10.32;;;4.13;;
37873;SDS011;23709;48.078;11.684;2024-02-21T02:36:17;8.55;;;2.90;;
37873;SDS011;23709;48.078;11.684;2024-02-21T02:38:49;11.87;;;3.37;;
37873;SDS011;23709;48.078;11.684;2024-02-21T02:41:22;9.43;;;3.08;;
37873;SDS011;23709;48.078;11.684;2024-02-21T02:43:54;5.88;;;2.72;;
37873;SDS011;23709;48.078;11.684;2024-02-21T02:46:26;4.18;;;1.70;;
37873;SDS011;23709;48.078;11.684;2024-02-21T02:48:58;6.35;;;2.03;;
37873;SDS011;23709;48.078;11.684;2024-02-21T02:51:31;5.80;;;2.38;;
37873;SDS011;23709;48.078;11.684;2024-02-21T02:54:04;5.13;;;2.33;;
37873;SDS011;23709;48.078;11.684;2024-02-21T02:56:36;3.72;;;1.65;;
37873;SDS011;23709;48.078;11.684;2024-02-21T02:59:08;3.78;;;1.83;;
37873;SDS011;23709;48.078;11.684;2024-02-21T03:01:41;5.57;;;1.85;;
37873;SDS011;23709;48.078;11.684;2024-02-21T03:04:13;4.97;;;2.08;;
37873;SDS011;23709;48.078;11.684;2024-02-21T03:06:45;5.40;;;1.50;;
37873;SDS011;23709;48.078;11.684;2024-02-21T03:09:18;3.08;;;1.67;;
37873;SDS011;23709;48.078;11.684;2024-02-21T03:11:50;3.00;;;1.27;;
37873;SDS011;23709;48.078;11.684;2024-02-21T03:14:22;3.75;;;1.80;;
37873;SDS011;23709;48.078;11.684;2024-02-21T03:16:54;2.83;;;1.77;;
37873;SDS011;23709;48.078;11.684;2024-02-21T03:19:28;2.22;;;1.63;;
37873;SDS011;23709;48.078;11.684;2024-02-21T03:22:00;4.63;;;1.23;;
37873;SDS011;23709;48.078;11.684;2024-02-21T03:24:33;6.80;;;2.05;;
37873;SDS011;23709;48.078;11.684;2024-02-21T03:27:05;3.65;;;1.65;;
37873;SDS011;23709;48.078;11.684;2024-02-21T03:29:38;2.60;;;1.25;;
37873;SDS011;23709;48.078;11.684;2024-02-21T03:32:10;3.92;;;1.50;;
37873;SDS011;23709;48.078;11.684;2024-02-21T03:34:42;5.55;;;1.65;;
37873;SDS011;23709;48.078;11.684;2024-02-21T03:37:15;3.17;;;1.40;;
37873;SDS011;23709;48.078;11.684;2024-02-21T03:39:47;4.05;;;1.83;;
37873;SDS011;23709;48.078;11.684;2024-02-21T03:42:20;4.30;;;1.90;;
37873;SDS011;23709;48.078;11.684;2024-02-21T03:44:52;4.25;;;1.83;;
37873;SDS011;23709;48.078;11.684;2024-02-21T03:47:24;6.15;;;2.38;;
37873;SDS011;23709;48.078;11.684;2024-02-21T03:49:57;3.75;;;1.60;;
37873;SDS011;23709;48.078;11.684;2024-02-21T03:52:31;4.90;;;2.08;;
37873;SDS011;23709;48.078;11.684;2024-02-21T03:55:04;4.38;;;1.63;;
37873;SDS011;23709;48.078;11.684;2024-02-21T03:57:36;5.15;;;1.58;;
37873;SDS011;23709;48.078;11.684;2024-02-21T04:00:10;5.05;;;1.45;;
37873;SDS011;23709;48.078;11.684;2024-02-21T04:02:43;3.88;;;1.85;;
37873;SDS011;23709;48.078;11.684;2024-02-21T04:05:16;3.08;;;1.73;;
37873;SDS011;23709;48.078;11.684;2024-02-21T04:07:48;5.25;;;2.13;;
37873;SDS011;23709;48.078;11.684;2024-02-21T04:10:22;2.65;;;1.80;;
37873;SDS011;23709;48.078;11.684;2024-02-21T04:12:55;3.78;;;1.30;;
37873;SDS011;23709;48.078;11.684;2024-02-21T04:15:27;4.65;;;1.73;;
37873;SDS011;23709;48.078;11.684;2024-02-21T04:17:59;4.07;;;1.73;;
37873;SDS011;23709;48.078;11.684;2024-02-21T04:20:31;11.15;;;1.67;;
37873;SDS011;23709;48.078;11.684;2024-02-21T04:23:04;4.70;;;1.40;;
37873;SDS011;23709;48.078;11.684;2024-02-21T04:25:36;2.08;;;1.30;;
37873;SDS011;23709;48.078;11.684;2024-02-21T04:28:08;2.22;;;1.45;;
37873;SDS011;23709;48.078;11.684;2024-02-21T04:30:41;4.10;;;1.70;;
37873;SDS011;23709;48.078;11.684;2024-02-21T04:33:13;4.45;;;1.95;;
37873;SDS011;23709;48.078;11.684;2024-02-21T04:35:45;2.00;;;1.65;;
37873;SDS011;23709;48.078;11.684;2024-02-21T04:38:17;3.20;;;2.13;;
37873;SDS011;23709;48.078;11.684;2024-02-21T04:40:50;2.35;;;1.25;;
37873;SDS011;23709;48.078;11.684;2024-02-21T04:43:22;3.65;;;1.50;;
37873;SDS011;23709;48.078;11.684;2024-02-21T04:45:54;4.55;;;1.45;;
37873;SDS011;23709;48.078;11.684;2024-02-21T04:48:26;1.67;;;1.17;;
37873;SDS011;23709;48.078;11.684;2024-02-21T04:50:59;3.17;;;1.52;;
37873;SDS011;23709;48.078;11.684;2024-02-21T04:53:31;2.92;;;1.70;;
37873;SDS011;23709;48.078;11.684;2024-02-21T04:56:04;2.27;;;1.03;;
37873;SDS011;23709;48.078;11.684;2024-02-21T04:58:39;4.57;;;1.50;;
37873;SDS011;23709;48.078;11.684;2024-02-21T05:01:12;2.60;;;1.35;;
37873;SDS011;23709;48.078;11.684;2024-02-21T05:03:45;5.43;;;1.40;;
37873;SDS011;23709;48.078;11.684;2024-02-21T05:06:17;3.63;;;1.08;;
37873;SDS011;23709;48.078;11.684;2024-02-21T05:08:49;5.72;;;1.60;;
37873;SDS011;23709;48.078;11.684;2024-02-21T05:11:21;3.70;;;1.52;;
37873;SDS011;23709;48.078;11.684;2024-02-21T05:13:54;7.88;;;2.22;;
37873;SDS011;23709;48.078;11.684;2024-02-21T05:16:27;5.60;;;2.20;;
37873;SDS011;23709;48.078;11.684;2024-02-21T05:18:59;3.38;;;1.98;;
37873;SDS011;23709;48.078;11.684;2024-02-21T05:21:31;4.27;;;1.53;;
37873;SDS011;23709;48.078;11.684;2024-02-21T05:24:04;2.80;;;1.30;;
37873;SDS011;23709;48.078;11.684;2024-02-21T05:26:37;4.13;;;1.30;;
37873;SDS011;23709;48.078;11.684;2024-02-21T05:29:09;2.05;;;1.38;;
37873;SDS011;23709;48.078;11.684;2024-02-21T05:34:23;3.22;;;1.20;;
37873;SDS011;23709;48.078;11.684;2024-02-21T05:36:55;3.45;;;1.40;;
37873;SDS011;23709;48.078;11.684;2024-02-21T05:39:29;4.03;;;1.48;;
37873;SDS011;23709;48.078;11.684;2024-02-21T05:42:01;3.35;;;2.03;;
37873;SDS011;23709;48.078;11.684;2024-02-21T05:44:34;6.18;;;1.45;;
37873;SDS011;23709;48.078;11.684;2024-02-21T05:47:06;3.03;;;1.40;;
37873;SDS011;23709;48.078;11.684;2024-02-21T05:49:42;4.00;;;1.40;;
37873;SDS011;23709;48.078;11.684;2024-02-21T05:52:15;2.88;;;1.40;;
37873;SDS011;23709;48.078;11.684;2024-02-21T05:54:47;2.33;;;1.23;;
37873;SDS011;23709;48.078;11.684;2024-02-21T05:57:21;2.95;;;1.60;;
37873;SDS011;23709;48.078;11.684;2024-02-21T05:59:54;3.63;;;1.30;;
37873;SDS011;23709;48.078;11.684;2024-02-21T06:02:27;2.92;;;1.25;;
37873;SDS011;23709;48.078;11.684;2024-02-21T06:04:59;3.65;;;1.30;;
37873;SDS011;23709;48.078;11.684;2024-02-21T06:07:32;4.90;;;1.63;;
37873;SDS011;23709;48.078;11.684;2024-02-21T06:10:04;3.17;;;1.40;;
37873;SDS011;23709;48.078;11.684;2024-02-21T06:12:38;2.00;;;1.23;;
37873;SDS011;23709;48.078;11.684;2024-02-21T06:15:10;3.38;;;1.40;;
37873;SDS011;23709;48.078;11.684;2024-02-21T06:17:42;2.55;;;1.30;;
37873;SDS011;23709;48.078;11.684;2024-02-21T06:20:18;3.78;;;1.52;;
37873;SDS011;23709;48.078;11.684;2024-02-21T06:22:50;4.85;;;1.55;;
37873;SDS011;23709;48.078;11.684;2024-02-21T06:25:23;3.35;;;1.70;;
37873;SDS011;23709;48.078;11.684;2024-02-21T06:27:56;3.47;;;1.63;;
37873;SDS011;23709;48.078;11.684;2024-02-21T06:30:28;3.10;;;1.60;;
37873;SDS011;23709;48.078;11.684;2024-02-21T06:33:01;5.13;;;1.90;;
37873;SDS011;23709;48.078;11.684;2024-02-21T06:35:34;7.82;;;2.25;;
37873;SDS011;23709;48.078;11.684;2024-02-21T06:38:07;7.43;;;2.30;;
37873;SDS011;23709;48.078;11.684;2024-02-21T06:40:39;5.22;;;2.70;;
37873;SDS011;23709;48.078;11.684;2024-02-21T06:43:12;3.45;;;2.25;;
37873;SDS011;23709;48.078;11.684;2024-02-21T06:45:44;6.18;;;2.30;;
37873;SDS011;23709;48.078;11.684;2024-02-21T06:48:23;9.27;;;2.22;;
37873;SDS011;23709;48.078;11.684;2024-02-21T06:50:55;5.97;;;1.88;;
37873;SDS011;23709;48.078;11.684;2024-02-21T06:53:27;8.07;;;2.30;;
37873;SDS011;23709;48.078;11.684;2024-02-21T06:56:00;5.30;;;2.75;;
37873;SDS011;23709;48.078;11.684;2024-02-21T06:58:32;6.57;;;2.47;;
37873;SDS011;23709;48.078;11.684;2024-02-21T07:01:04;4.40;;;2.05;;
37873;SDS011;23709;48.078;11.684;2024-02-21T07:03:37;6.18;;;1.85;;
37873;SDS011;23709;48.078;11.684;2024-02-21T07:06:10;10.70;;;1.83;;
37873;SDS011;23709;48.078;11.684;2024-02-21T07:08:43;3.38;;;1.65;;
37873;SDS011;23709;48.078;11.684;2024-02-21T07:11:15;2.83;;;1.80;;
37873;SDS011;23709;48.078;11.684;2024-02-21T07:13:48;7.28;;;2.20;;
37873;SDS011;23709;48.078;11.684;2024-02-21T07:16:20;2.85;;;1.52;;
37873;SDS011;23709;48.078;11.684;2024-02-21T07:18:53;5.00;;;1.60;;
37873;SDS011;23709;48.078;11.684;2024-02-21T07:21:25;5.70;;;1.73;;
37873;SDS011;23709;48.078;11.684;2024-02-21T07:23:58;3.70;;;1.40;;
37873;SDS011;23709;48.078;11.684;2024-02-21T07:26:31;18.57;;;2.53;;
37873;SDS011;23709;48.078;11.684;2024-02-21T07:29:03;3.13;;;2.10;;
37873;SDS011;23709;48.078;11.684;2024-02-21T07:31:42;5.10;;;1.60;;
37873;SDS011;23709;48.078;11.684;2024-02-21T07:34:15;3.95;;;1.63;;
37873;SDS011;23709;48.078;11.684;2024-02-21T07:36:48;5.97;;;1.85;;
37873;SDS011;23709;48.078;11.684;2024-02-21T07:39:20;1.92;;;1.17;;
37873;SDS011;23709;48.078;11.684;2024-02-21T07:41:53;11.77;;;2.20;;
37873;SDS011;23709;48.078;11.684;2024-02-21T07:44:25;4.28;;;1.33;;
37873;SDS011;23709;48.078;11.684;2024-02-21T07:46:58;3.30;;;1.42;;
37873;SDS011;23709;48.078;11.684;2024-02-21T07:49:30;3.25;;;1.60;;
37873;SDS011;23709;48.078;11.684;2024-02-21T07:52:03;5.03;;;1.58;;
37873;SDS011;23709;48.078;11.684;2024-02-21T07:54:35;3.07;;;1.43;;
37873;SDS011;23709;48.078;11.684;2024-02-21T07:57:08;4.05;;;1.38;;
37873;SDS011;23709;48.078;11.684;2024-02-21T07:59:40;4.38;;;1.40;;
37873;SDS011;23709;48.078;11.684;2024-02-21T08:02:15;3.03;;;1.38;;
37873;SDS011;23709;48.078;11.684;2024-02-21T08:04:48;1.88;;;1.50;;
37873;SDS011;23709;48.078;11.684;2024-02-21T08:07:20;3.10;;;1.40;;
37873;SDS011;23709;48.078;11.684;2024-02-21T08:09:53;2.60;;;1.40;;
37873;SDS011;23709;48.078;11.684;2024-02-21T08:12:25;4.50;;;1.73;;
37873;SDS011;23709;48.078;11.684;2024-02-21T08:14:58;4.35;;;1.85;;
37873;SDS011;23709;48.078;11.684;2024-02-21T08:17:31;4.63;;;1.10;;
37873;SDS011;23709;48.078;11.684;2024-02-21T08:20:04;7.18;;;2.28;;
37873;SDS011;23709;48.078;11.684;2024-02-21T08:25:10;3.97;;;2.03;;
37873;SDS011;23709;48.078;11.684;2024-02-21T08:27:42;7.45;;;1.95;;
37873;SDS011;23709;48.078;11.684;2024-02-21T08:30:17;7.32;;;1.60;;
37873;SDS011;23709;48.078;11.684;2024-02-21T08:32:49;18.17;;;2.10;;
37873;SDS011;23709;48.078;11.684;2024-02-21T08:35:22;25.00;;;2.57;;
37873;SDS011;23709;48.078;11.684;2024-02-21T08:37:54;4.47;;;1.40;;
37873;SDS011;23709;48.078;11.684;2024-02-21T08:40:27;10.38;;;1.48;;
37873;SDS011;23709;48.078;11.684;2024-02-21T08:42:59;2.00;;;1.27;;
37873;SDS011;23709;48.078;11.684;2024-02-21T08:45:31;7.15;;;1.75;;
37873;SDS011;23709;48.078;11.684;2024-02-21T08:48:04;6.82;;;1.35;;
37873;SDS011;23709;48.078;11.684;2024-02-21T08:50:37;6.10;;;1.50;;
37873;SDS011;23709;48.078;11.684;2024-02-21T08:53:10;2.65;;;1.30;;
37873;SDS011;23709;48.078;11.684;2024-02-21T08:55:43;1.88;;;1.30;;
37873;SDS011;23709;48.078;11.684;2024-02-21T08:58:16;2.42;;;1.15;;
37873;SDS011;23709;48.078;11.684;2024-02-21T09:00:52;1.20;;;1.10;;
37873;SDS011;23709;48.078;11.684;2024-02-21T09:03:24;2.72;;;1.35;;
37873;SDS011;23709;48.078;11.684;2024-02-21T09:05:56;3.33;;;1.00;;
37873;SDS011;23709;48.078;11.684;2024-02-21T09:11:02;2.40;;;1.33;;
37873;SDS011;23709;48.078;11.684;2024-02-21T09:13:35;4.00;;;1.50;;
37873;SDS011;23709;48.078;11.684;2024-02-21T09:16:08;3.00;;;1.20;;
37873;SDS011;23709;48.078;11.684;2024-02-21T09:18:40;2.65;;;1.13;;
37873;SDS011;23709;48.078;11.684;2024-02-21T09:21:14;2.35;;;0.93;;
37873;SDS011;23709;48.078;11.684;2024-02-21T09:23:46;2.90;;;1.00;;
37873;SDS011;23709;48.078;11.684;2024-02-21T09:26:18;4.47;;;1.17;;
37873;SDS011;23709;48.078;11.684;2024-02-21T09:28:51;3.30;;;0.87;;
37873;SDS011;23709;48.078;11.684;2024-02-21T09:31:23;3.90;;;0.88;;
37873;SDS011;23709;48.078;11.684;2024-02-21T09:33:56;2.15;;;0.82;;
37873;SDS011;23709;48.078;11.684;2024-02-21T09:36:29;1.47;;;0.90;;
37873;SDS011;23709;48.078;11.684;2024-02-21T09:39:02;2.13;;;1.00;;
37873;SDS011;23709;48.078;11.684;2024-02-21T09:41:34;2.22;;;0.95;;
37873;SDS011;23709;48.078;11.684;2024-02-21T09:44:11;1.67;;;0.98;;
37873;SDS011;23709;48.078;11.684;2024-02-21T09:49:31;1.33;;;0.80;;
37873;SDS011;23709;48.078;11.684;2024-02-21T09:52:05;1.83;;;0.98;;
37873;SDS011;23709;48.078;11.684;2024-02-21T09:54:38;1.52;;;0.82;;
37873;SDS011;23709;48.078;11.684;2024-02-21T09:57:13;3.97;;;0.60;;
37873;SDS011;23709;48.078;11.684;2024-02-21T09:59:46;1.40;;;1.00;;
37873;SDS011;23709;48.078;11.684;2024-02-21T10:02:19;1.83;;;0.55;;
37873;SDS011;23709;48.078;11.684;2024-02-21T10:04:52;1.73;;;1.00;;
37873;SDS011;23709;48.078;11.684;2024-02-21T10:07:24;2.38;;;0.73;;
37873;SDS011;23709;48.078;11.684;2024-02-21T10:10:01;1.83;;;0.70;;
37873;SDS011;23709;48.078;11.684;2024-02-21T10:12:34;2.58;;;0.82;;
37873;SDS011;23709;48.078;11.684;2024-02-21T10:15:08;2.72;;;0.70;;
37873;SDS011;23709;48.078;11.684;2024-02-21T10:17:40;3.42;;;0.80;;
37873;SDS011;23709;48.078;11.684;2024-02-21T10:20:13;1.80;;;0.70;;
37873;SDS011;23709;48.078;11.684;2024-02-21T10:22:47;1.00;;;0.60;;
37873;SDS011;23709;48.078;11.684;2024-02-21T10:25:20;1.27;;;0.70;;
37873;SDS011;23709;48.078;11.684;2024-02-21T10:27:52;2.58;;;1.00;;
37873;SDS011;23709;48.078;11.684;2024-02-21T10:30:25;1.67;;;0.70;;
37873;SDS011;23709;48.078;11.684;2024-02-21T10:32:57;2.22;;;0.60;;
37873;SDS011;23709;48.078;11.684;2024-02-21T10:35:30;1.67;;;0.85;;
37873;SDS011;23709;48.078;11.684;2024-02-21T10:38:03;1.08;;;0.63;;
37873;SDS011;23709;48.078;11.684;2024-02-21T10:40:36;1.63;;;0.50;;
37873;SDS011;23709;48.078;11.684;2024-02-21T10:43:11;1.53;;;0.60;;
37873;SDS011;23709;48.078;11.684;2024-02-21T10:45:46;0.85;;;0.65;;
37873;SDS011;23709;48.078;11.684;2024-02-21T10:48:22;2.33;;;0.80;;
37873;SDS011;23709;48.078;11.684;2024-02-21T10:51:02;0.60;;;0.50;;
37873;SDS011;23709;48.078;11.684;2024-02-21T10:56:39;3.28;;;0.70;;
37873;SDS011;23709;48.078;11.684;2024-02-21T10:59:13;1.77;;;0.60;;
37873;SDS011;23709;48.078;11.684;2024-02-21T11:01:46;1.10;;;0.70;;
37873;SDS011;23709;48.078;11.684;2024-02-21T11:06:53;2.78;;;0.90;;
37873;SDS011;23709;48.078;11.684;2024-02-21T11:09:29;2.85;;;0.70;;
37873;SDS011;23709;48.078;11.684;2024-02-21T11:12:06;1.65;;;0.70;;
37873;SDS011;23709;48.078;11.684;2024-02-21T11:14:39;1.67;;;0.70;;
37873;SDS011;23709;48.078;11.684;2024-02-21T11:17:17;0.55;;;0.50;;
37873;SDS011;23709;48.078;11.684;2024-02-21T11:19:50;1.77;;;0.63;;
37873;SDS011;23709;48.078;11.684;2024-02-21T11:22:22;0.50;;;0.50;;
37873;SDS011;23709;48.078;11.684;2024-02-21T11:25:05;2.05;;;0.52;;
37873;SDS011;23709;48.078;11.684;2024-02-21T11:27:47;2.50;;;0.55;;
37873;SDS011;23709;48.078;11.684;2024-02-21T11:30:19;0.80;;;0.68;;
37873;SDS011;23709;48.078;11.684;2024-02-21T11:32:59;1.92;;;0.57;;
37873;SDS011;23709;48.078;11.684;2024-02-21T11:35:35;0.38;;;0.35;;
37873;SDS011;23709;48.078;11.684;2024-02-21T11:38:12;0.52;;;0.40;;
37873;SDS011;23709;48.078;11.684;2024-02-21T11:40:48;0.90;;;0.40;;
37873;SDS011;23709;48.078;11.684;2024-02-21T11:43:21;1.25;;;0.52;;
37873;SDS011;23709;48.078;11.684;2024-02-21T11:46:00;0.52;;;0.43;;
37873;SDS011;23709;48.078;11.684;2024-02-21T11:48:35;0.80;;;0.50;;
37873;SDS011;23709;48.078;11.684;2024-02-21T11:51:07;0.83;;;0.40;;
37873;SDS011;23709;48.078;11.684;2024-02-21T11:53:40;0.73;;;0.57;;
37873;SDS011;23709;48.078;11.684;2024-02-21T11:56:28;0.65;;;0.50;;
37873;SDS011;23709;48.078;11.684;2024-02-21T11:59:00;0.90;;;0.30;;
37873;SDS011;23709;48.078;11.684;2024-02-21T12:01:32;0.90;;;0.60;;
37873;SDS011;23709;48.078;11.684;2024-02-21T12:04:06;0.40;;;0.40;;
37873;SDS011;23709;48.078;11.684;2024-02-21T12:06:38;0.85;;;0.40;;
37873;SDS011;23709;48.078;11.684;2024-02-21T12:09:17;0.65;;;0.40;;
37873;SDS011;23709;48.078;11.684;2024-02-21T12:11:59;0.77;;;0.50;;
37873;SDS011;23709;48.078;11.684;2024-02-21T12:14:36;1.25;;;0.40;;
37873;SDS011;23709;48.078;11.684;2024-02-21T12:17:10;0.38;;;0.30;;
37873;SDS011;23709;48.078;11.684;2024-02-21T12:19:42;1.10;;;0.60;;
37873;SDS011;23709;48.078;11.684;2024-02-21T12:22:18;1.45;;;0.40;;
37873;SDS011;23709;48.078;11.684;2024-02-21T12:24:51;3.05;;;0.50;;
37873;SDS011;23709;48.078;11.684;2024-02-21T12:27:23;1.17;;;0.45;;
37873;SDS011;23709;48.078;11.684;2024-02-21T12:29:57;0.73;;;0.50;;
37873;SDS011;23709;48.078;11.684;2024-02-21T12:32:29;0.65;;;0.52;;
37873;SDS011;23709;48.078;11.684;2024-02-21T12:35:02;1.40;;;0.40;;
37873;SDS011;23709;48.078;11.684;2024-02-21T12:37:36;1.10;;;0.60;;
37873;SDS011;23709;48.078;11.684;2024-02-21T12:40:11;2.28;;;0.35;;
37873;SDS011;23709;48.078;11.684;2024-02-21T12:42:46;1.15;;;0.60;;
37873;SDS011;23709;48.078;11.684;2024-02-21T12:45:19;0.73;;;0.50;;
37873;SDS011;23709;48.078;11.684;2024-02-21T12:47:52;0.57;;;0.40;;
37873;SDS011;23709;48.078;11.684;2024-02-21T12:50:24;2.47;;;0.80;;
37873;SDS011;23709;48.078;11.684;2024-02-21T12:52:57;3.55;;;0.60;;
37873;SDS011;23709;48.078;11.684;2024-02-21T12:55:30;0.57;;;0.43;;
37873;SDS011;23709;48.078;11.684;2024-02-21T12:58:03;2.70;;;0.45;;
37873;SDS011;23709;48.078;11.684;2024-02-21T13:00:39;0.43;;;0.30;;
37873;SDS011;23709;48.078;11.684;2024-02-21T13:03:11;1.70;;;0.63;;
37873;SDS011;23709;48.078;11.684;2024-02-21T13:05:44;1.10;;;0.60;;
37873;SDS011;23709;48.078;11.684;2024-02-21T13:08:16;2.67;;;0.60;;
37873;SDS011;23709;48.078;11.684;2024-02-21T13:10:49;0.95;;;0.55;;
37873;SDS011;23709;48.078;11.684;2024-02-21T13:43:52;1.55;;;0.60;;
37873;SDS011;23709;48.078;11.684;2024-02-21T13:46:26;1.00;;;0.40;;
37873;SDS011;23709;48.078;11.684;2024-02-21T13:49:03;0.47;;;0.45;;
37873;SDS011;23709;48.078;11.684;2024-02-21T13:51:40;0.63;;;0.47;;
37873;SDS011;23709;48.078;11.684;2024-02-21T13:54:14;1.63;;;0.65;;
37873;SDS011;23709;48.078;11.684;2024-02-21T13:56:51;0.95;;;0.47;;
37873;SDS011;23709;48.078;11.684;2024-02-21T13:59:23;1.45;;;0.60;;
37873;SDS011;23709;48.078;11.684;2024-02-21T14:01:56;1.17;;;0.53;;
37873;SDS011;23709;48.078;11.684;2024-02-21T14:04:28;0.80;;;0.47;;
37873;SDS011;23709;48.078;11.684;2024-02-21T14:09:34;4.55;;;0.63;;
37873;SDS011;23709;48.078;11.684;2024-02-21T14:12:07;2.70;;;0.50;;
37873;SDS011;23709;48.078;11.684;2024-02-21T14:14:43;1.15;;;0.63;;
37873;SDS011;23709;48.078;11.684;2024-02-21T14:17:16;4.80;;;1.10;;
37873;SDS011;23709;48.078;11.684;2024-02-21T14:19:48;0.93;;;0.60;;
37873;SDS011;23709;48.078;11.684;2024-02-21T14:22:21;1.75;;;0.50;;
37873;SDS011;23709;48.078;11.684;2024-02-21T14:24:53;1.23;;;0.60;;
37873;SDS011;23709;48.078;11.684;2024-02-21T14:27:25;2.08;;;0.52;;
37873;SDS011;23709;48.078;11.684;2024-02-21T14:29:58;0.33;;;0.33;;
37873;SDS011;23709;48.078;11.684;2024-02-21T14:32:31;3.25;;;0.80;;
37873;SDS011;23709;48.078;11.684;2024-02-21T14:35:04;1.05;;;0.65;;
37873;SDS011;23709;48.078;11.684;2024-02-21T14:37:38;2.63;;;0.63;;
37873;SDS011;23709;48.078;11.684;2024-02-21T14:40:11;0.95;;;0.52;;
37873;SDS011;23709;48.078;11.684;2024-02-21T14:42:43;1.10;;;0.75;;
37873;SDS011;23709;48.078;11.684;2024-02-21T14:45:16;0.97;;;0.50;;
37873;SDS011;23709;48.078;11.684;2024-02-21T14:47:49;0.90;;;0.50;;
37873;SDS011;23709;48.078;11.684;2024-02-21T14:50:22;0.80;;;0.60;;
37873;SDS011;23709;48.078;11.684;2024-02-21T14:52:55;0.90;;;0.70;;
37873;SDS011;23709;48.078;11.684;2024-02-21T14:55:28;0.90;;;0.50;;
37873;SDS011;23709;48.078;11.684;2024-02-21T14:58:01;0.77;;;0.60;;
37873;SDS011;23709;48.078;11.684;2024-02-21T15:00:33;0.50;;;0.50;;
37873;SDS011;23709;48.078;11.684;2024-02-21T15:03:06;1.00;;;0.85;;
37873;SDS011;23709;48.078;11.684;2024-02-21T15:05:39;0.80;;;0.63;;
37873;SDS011;23709;48.078;11.684;2024-02-21T15:08:11;0.60;;;0.53;;
37873;SDS011;23709;48.078;11.684;2024-02-21T15:10:48;1.10;;;0.70;;
37873;SDS011;23709;48.078;11.684;2024-02-21T15:13:22;3.97;;;0.60;;
37873;SDS011;23709;48.078;11.684;2024-02-21T15:15:55;1.05;;;0.70;;
37873;SDS011;23709;48.078;11.684;2024-02-21T15:18:27;0.70;;;0.43;;
37873;SDS011;23709;48.078;11.684;2024-02-21T15:21:00;0.98;;;0.60;;
37873;SDS011;23709;48.078;11.684;2024-02-21T15:23:33;4.97;;;0.45;;
37873;SDS011;23709;48.078;11.684;2024-02-21T15:26:06;1.27;;;0.50;;
37873;SDS011;23709;48.078;11.684;2024-02-21T15:28:39;3.75;;;0.60;;
37873;SDS011;23709;48.078;11.684;2024-02-21T15:31:19;2.13;;;0.70;;
37873;SDS011;23709;48.078;11.684;2024-02-21T15:33:54;0.98;;;0.50;;
37873;SDS011;23709;48.078;11.684;2024-02-21T15:36:27;2.33;;;0.40;;
37873;SDS011;23709;48.078;11.684;2024-02-21T15:39:00;0.88;;;0.52;;
37873;SDS011;23709;48.078;11.684;2024-02-21T15:41:35;0.90;;;0.70;;
37873;SDS011;23709;48.078;11.684;2024-02-21T15:44:08;1.48;;;0.80;;
37873;SDS011;23709;48.078;11.684;2024-02-21T15:46:41;1.85;;;0.77;;
37873;SDS011;23709;48.078;11.684;2024-02-21T15:49:14;2.65;;;0.60;;
37873;SDS011;23709;48.078;11.684;2024-02-21T15:51:46;2.80;;;0.70;;
37873;SDS011;23709;48.078;11.684;2024-02-21T15:54:20;3.00;;;0.70;;
37873;SDS011;23709;48.078;11.684;2024-02-21T15:56:57;4.13;;;0.68;;
37873;SDS011;23709;48.078;11.684;2024-02-21T15:59:29;5.25;;;0.70;;